Latest Weather Observations for Yarrawonga

IDV60801

Issued at 7:31 pm EDT Thursday 11 February 2016 (issued every 30 minutes, with the page automatically refreshed every 10 minutes)

About weather observations | Map of weather stations | Latest weather observations for VIC | Other Formats
Station Details ID: 081124 Name: YARRAWONGA Lat: -36.03 Lon: 146.03 Height: 128.9 m
Data from the previous 72 hours. | See also: Recent months at Yarrawonga
Date/Time
EDT
Temp
°C
App
Temp
°C
Dew
Point
Rel
Hum
%
Delta-T
°C
Wind Press
QNH
hPa
Press
MSL
hPa
Rain
since 9 am
mm
Dir
 
Spd
km/h
Gust
km/h
Spd
kts
Gust
kts
11/07:30pm 32.2 27.6 6.4 20 14.0 SW 20 28 11 15 1010.7 1010.1 0.0
11/07:00pm 33.2 28.8 7.2 20 14.4 S 20 28 11 15 1010.4 1009.8 0.0
11/06:30pm 33.7 29.9 7.6 20 14.5 SSW 17 24 9 13 1010.2 1009.6 0.0
11/06:00pm 32.8 27.5 6.9 20 14.2 SSW 24 32 13 17 1010.2 1009.6 0.0
11/05:30pm 34.3 29.7 6.6 18 15.2 SSW 20 28 11 15 1010.1 1009.5 0.0
11/05:00pm 32.8 29.2 6.9 20 14.2 SW 15 20 8 11 1010.2 1009.6 0.0
11/04:30pm 33.6 30.0 6.8 19 14.7 SW 15 28 8 15 1010.3 1009.7 0.0
11/04:00pm 34.5 30.9 8.3 20 14.8 SW 17 26 9 14 1010.6 1010.0 0.0
11/03:30pm 35.3 33.2 8.2 19 15.3 SW 9 15 5 8 1010.7 1010.1 0.0
11/03:00pm 33.9 31.7 7.8 20 14.6 SW 9 15 5 8 1011.0 1010.4 0.0
11/02:30pm 33.8 32.5 9.8 23 13.8 W 7 19 4 10 1011.4 1010.8 0.0
11/02:00pm 33.3 31.6 10.0 24 13.4 W 9 17 5 9 1011.8 1011.2 0.0
11/01:30pm 32.7 32.0 11.3 27 12.6 W 6 15 3 8 1012.1 1011.5 0.0
11/01:00pm 32.6 32.3 12.8 30 11.9 SE 6 13 3 7 1012.5 1011.9 0.0
11/12:30pm 31.2 30.3 12.5 31 11.1 WNW 9 15 5 8 1012.9 1012.3 0.0
11/12:00pm 30.4 30.9 12.8 34 10.5 SSW 2 6 1 3 1013.3 1012.7 0.0
11/11:30am 29.4 29.5 12.8 36 9.8 SW 4 9 2 5 1013.5 1012.9 0.0
11/11:00am 28.5 28.9 13.6 40 8.9 SSW 4 9 2 5 1013.7 1013.1 0.0
11/10:30am 26.8 26.7 13.2 43 8.0 SW 6 7 3 4 1013.7 1013.1 0.0
11/10:00am 25.4 24.8 12.3 44 7.6 SW 7 11 4 6 1013.6 1013.0 0.0
11/09:30am 23.8 23.6 11.8 47 6.8 SW 4 7 2 4 1013.8 1013.2 0.0
11/09:00am 22.1 21.3 11.2 50 6.1 SW 6 9 3 5 1013.7 1013.1 0.0
11/08:30am 20.1 18.8 11.3 57 4.9 SW 9 11 5 6 1013.5 1012.9 0.0
11/08:00am 18.4 17.1 11.2 63 3.9 WSW 9 13 5 7 1013.1 1012.5 0.0
11/07:30am 16.5 15.2 11.4 72 2.8 WSW 9 11 5 6 1012.7 1012.1 0.0
11/07:00am 15.3 14.3 11.1 76 2.3 WSW 7 7 4 4 1012.3 1011.7 0.0
11/06:30am 15.5 14.1 10.9 74 2.5 SW 9 11 5 6 1011.9 1011.3 0.0
11/06:00am 16.1 14.3 10.8 71 2.8 WSW 11 11 6 6 1011.6 1011.0 0.0
11/05:30am 16.0 15.2 11.0 72 2.7 WSW 6 7 3 4 1011.4 1010.8 0.0
11/05:00am 16.8 15.1 11.1 69 3.1 SW 11 13 6 7 1011.2 1010.6 0.0
11/04:30am 16.7 15.3 11.0 69 3.1 SW 9 9 5 5 1011.0 1010.4 0.0
11/04:00am 17.4 15.6 11.0 66 3.5 SW 11 13 6 7 1010.9 1010.3 0.0
11/03:30am 17.4 16.1 11.2 67 3.4 SW 9 13 5 7 1011.0 1010.4 0.0
11/03:00am 17.8 16.7 11.8 68 3.3 SW 9 11 5 6 1011.2 1010.6 0.0
11/02:30am 17.9 16.5 12.1 69 3.2 SW 11 13 6 7 1011.2 1010.6 0.0
11/02:00am 17.9 16.8 12.1 69 3.2 WSW 9 11 5 6 1011.4 1010.8 0.0
11/01:30am 17.8 16.3 11.8 68 3.3 SW 11 13 6 7 1011.5 1010.9 0.0
11/01:00am 17.9 16.5 10.8 63 3.8 WSW 9 11 5 6 1011.7 1011.1 0.0
11/12:30am 19.4 17.0 10.1 55 5.0 WSW 13 15 7 8 1011.9 1011.3 0.0
11/12:00am 19.5 17.7 9.4 52 5.4 WSW 9 11 5 6 1012.0 1011.4 0.0
 
Date/Time
EDT
Temp
°C
App
Temp
°C
Dew
Point
Rel
Hum
%
Delta-T
°C
Wind Press
QNH
hPa
Press
MSL
hPa
Rain
since 9 am
mm
Dir
 
Spd
km/h
Gust
km/h
Spd
kts
Gust
kts
10/11:30pm 20.3 18.3 8.6 47 6.2 WSW 9 9 5 5 1012.0 1011.4 0.0
10/11:00pm 20.3 18.1 8.0 45 6.4 SW 9 11 5 6 1012.1 1011.5 0.0
10/10:30pm 21.5 18.2 6.6 38 7.6 SW 13 15 7 8 1012.1 1011.5 0.0
10/10:00pm 23.5 19.6 5.4 31 9.2 SW 15 17 8 9 1012.0 1011.4 0.0
10/09:30pm 25.0 21.6 5.7 29 9.9 SW 13 15 7 8 1011.9 1011.3 0.0
10/09:00pm 25.0 22.0 6.2 30 9.8 SW 11 13 6 7 1011.7 1011.1 0.0
10/08:30pm 27.5 23.4 4.5 23 11.8 SW 15 19 8 10 1011.5 1010.9 0.0
10/08:00pm 29.8 25.6 3.7 19 13.4 SW 15 22 8 12 1011.2 1010.6 0.0
10/07:30pm 31.6 26.6 4.4 18 14.2 SW 20 24 11 13 1010.9 1010.3 0.0
10/07:00pm 31.7 26.5 3.7 17 14.5 SW 20 28 11 15 1010.7 1010.1 0.0
10/06:30pm 31.8 25.9 2.0 15 15.0 SW 22 30 12 16 1010.5 1009.9 0.0
10/06:00pm 33.1 27.4 3.0 15 15.5 SW 22 33 12 18 1010.2 1009.6 0.0
10/05:30pm 33.8 29.9 5.4 17 15.3 WSW 15 28 8 15 1010.1 1009.5 0.0
10/05:00pm 34.0 29.4 5.5 17 15.4 SW 19 37 10 20 1010.1 1009.5 0.0
10/04:30pm 33.2 28.4 5.7 18 14.8 WSW 20 28 11 15 1010.3 1009.7 0.0
10/04:00pm 33.7 29.3 7.6 20 14.5 W 20 33 11 18 1010.4 1009.8 0.0
10/03:30pm 33.8 29.7 7.7 20 14.6 WSW 19 30 10 16 1010.7 1010.1 0.0
10/03:00pm 34.0 30.1 8.6 21 14.4 SW 19 30 10 16 1011.1 1010.5 0.0
10/02:30pm 33.7 30.2 10.3 24 13.6 WSW 19 28 10 15 1011.5 1010.9 0.0
10/02:00pm 33.0 29.4 9.7 24 13.4 SW 19 28 10 15 1011.8 1011.2 0.0
10/01:30pm 32.9 29.4 10.3 25 13.1 WSW 19 33 10 18 1012.1 1011.5 0.0
10/01:00pm 31.9 29.8 11.1 28 12.1 WNW 13 20 7 11 1012.4 1011.8 0.0
10/12:30pm 31.6 30.1 11.9 30 11.6 WNW 11 19 6 10 1012.8 1012.2 0.0
10/12:00pm 31.2 29.9 11.1 29 11.7 WNW 9 22 5 12 1013.2 1012.6 0.0
10/11:30am 30.2 28.8 12.1 32 10.6 NW 11 17 6 9 1013.5 1012.9 0.0
10/11:00am 29.1 29.1 12.5 36 9.8 NNW 4 13 2 7 1013.7 1013.1 0.0
10/10:30am 27.6 27.3 12.8 40 8.7 NNW 6 9 3 5 1013.9 1013.4 0.0
10/10:00am 26.5 26.1 12.9 43 8.0 NNE 7 13 4 7 1013.9 1013.4 0.0
10/09:30am 24.9 24.0 12.5 46 7.2 NE 9 15 5 8 1013.8 1013.2 0.0
10/09:00am 24.3 23.4 12.6 48 6.8 NE 9 13 5 7 1013.9 1013.4 0.0
10/08:30am 22.1 22.7 15.9 68 3.7 E 7 9 4 5 1013.8 1013.2 0.0
10/08:00am 19.7 20.2 15.6 77 2.4 E 7 9 4 5 1013.6 1013.0 0.0
10/07:30am 15.9 15.9 13.6 86 1.3 E 6 6 3 3 1013.3 1012.7 0.0
10/07:00am 14.3 14.7 12.5 89 1.0 W 2 6 1 3 1013.2 1012.6 0.0
10/06:30am 13.0 12.7 11.4 90 0.9 ESE 4 7 2 4 1012.8 1012.2 0.0
10/06:00am 14.0 13.4 11.7 86 1.2 SSE 6 6 3 3 1012.6 1012.0 0.0
10/05:30am 15.4 15.4 12.5 83 1.6 WSW 4 4 2 2 1012.5 1011.9 0.0
10/05:00am 15.3 15.0 12.6 84 1.5 W 6 6 3 3 1012.5 1011.9 0.0
10/04:30am 15.2 15.5 11.0 76 2.2 CALM 0 0 0 0 1012.3 1011.7 0.0
10/04:00am 14.9 15.3 11.1 78 2.0 CALM 0 0 0 0 1012.3 1011.7 0.0
10/03:30am 16.1 15.9 11.9 76 2.3 WSW 4 4 2 2 1012.4 1011.8 0.0
10/03:00am 16.5 16.1 13.0 80 2.0 WSW 7 9 4 5 1012.4 1011.8 0.0
10/02:30am 16.1 16.3 11.9 76 2.3 SW 2 2 1 1 1012.6 1012.0 0.0
10/02:00am 17.3 17.2 12.2 72 2.8 SSW 4 6 2 3 1012.9 1012.3 0.0
10/01:30am 17.3 17.7 11.3 68 3.3 CALM 0 4 0 2 1013.0 1012.4 0.0
10/01:00am 19.5 19.4 12.0 62 4.2 WSW 4 4 2 2 1013.3 1012.7 0.0
10/12:30am 19.9 19.1 10.9 56 4.9 WSW 6 6 3 3 1013.5 1012.9 0.0
10/12:00am 20.7 20.1 10.5 52 5.6 WSW 4 4 2 2 1013.6 1013.0 0.0
 
Date/Time
EDT
Temp
°C
App
Temp
°C
Dew
Point
Rel
Hum
%
Delta-T
°C
Wind Press
QNH
hPa
Press
MSL
hPa
Rain
since 9 am
mm
Dir
 
Spd
km/h
Gust
km/h
Spd
kts
Gust
kts
09/11:30pm 20.9 19.8 10.1 50 5.9 WSW 6 6 3 3 1013.8 1013.2 0.0
09/11:00pm 22.1 20.5 8.2 41 7.3 WSW 6 6 3 3 1014.0 1013.5 0.0
09/10:30pm 21.8 20.5 9.3 45 6.7 W 6 6 3 3 1014.0 1013.5 0.0
09/10:00pm 23.6 21.8 8.1 37 8.2 WSW 7 7 4 4 1013.9 1013.4 0.0
09/09:30pm 24.4 22.4 7.1 33 9.1 SW 7 9 4 5 1013.9 1013.4 0.0
09/09:00pm 24.8 23.4 8.7 36 8.7 W 6 6 3 3 1013.8 1013.2 0.0
09/08:30pm 26.8 24.8 6.2 27 10.8 W 6 7 3 4 1013.7 1013.1 0.0
09/08:00pm 30.5 28.3 6.4 22 12.9 W 7 9 4 5 1013.8 1013.2 0.0
09/07:30pm 33.0 29.7 4.7 17 15.0 W 11 15 6 8 1013.7 1013.1 0.0
09/07:00pm 34.2 32.1 6.5 18 15.2 WSW 7 11 4 6 1013.5 1012.9 0.0
09/06:30pm 34.5 31.7 5.0 16 15.8 W 9 15 5 8 1013.4 1012.8 0.0
09/06:00pm 34.4 31.8 3.1 14 16.3 W 6 13 3 7 1013.5 1012.9 0.0
09/05:30pm 34.4 31.4 4.0 15 16.0 NW 9 17 5 9 1013.7 1013.1 0.0
09/05:00pm 34.6 31.4 5.1 16 15.9 WSW 11 19 6 10 1014.1 1013.6 0.0
09/04:30pm 34.1 31.6 6.4 18 15.2 NW 9 15 5 8 1014.5 1014.0 0.0
09/04:00pm 34.2 31.7 8.0 20 14.7 W 11 22 6 12 1014.7 1014.2 0.0
09/03:30pm 34.7 33.0 9.9 22 14.4 W 9 19 5 10 1015.2 1014.6 0.0
09/03:00pm 34.1 31.1 9.4 22 14.2 W 15 26 8 14 1015.6 1015.0 0.0
09/02:30pm 33.7 31.9 12.1 27 12.9 WNW 13 24 7 13 1016.1 1015.5 0.0
09/02:00pm 33.3 32.9 12.9 29 12.3 NW 7 17 4 9 1016.4 1015.8 0.0
09/01:30pm 32.7 30.1 10.7 26 12.8 NNW 15 22 8 12 1016.7 1016.1 0.0
09/01:00pm 32.0 30.5 13.2 31 11.3 NNW 13 24 7 13 1017.2 1016.6 0.0
09/12:30pm 31.3 30.6 14.4 35 10.3 N 11 20 6 11 1017.6 1017.0 0.0
09/12:00pm 30.5 29.3 15.0 39 9.5 N 15 22 8 12 1018.0 1017.4 0.0
09/11:30am 29.1 27.5 14.9 42 8.7 N 17 26 9 14 1018.3 1017.7 0.0
09/11:00am 28.2 26.6 15.1 44 8.0 NNE 17 24 9 13 1018.6 1018.0 0.0
09/10:30am 27.0 25.3 14.7 47 7.4 NNE 17 26 9 14 1018.7 1018.1 0.0
09/10:00am 26.4 24.7 14.8 49 7.0 NE 17 26 9 14 1018.8 1018.2 0.0
09/09:30am 25.2 23.0 14.3 50 6.5 NE 19 28 10 15 1018.8 1018.2 0.0
09/09:00am 24.3 23.1 15.0 56 5.6 ENE 15 20 8 11 1018.9 1018.3 0.0
09/08:30am 23.1 23.2 16.4 66 4.1 ENE 11 20 6 11 1018.7 1018.1 0.0
09/08:00am 18.9 19.9 14.4 75 2.6 ESE 2 7 1 4 1018.6 1018.0 0.0
09/07:30am 15.8 16.0 13.1 84 1.5 SSW 4 6 2 3 1018.3 1017.7 0.0
09/07:00am 14.3 13.9 12.3 88 1.1 SW 6 6 3 3 1018.1 1017.5 0.0
09/06:30am 13.8 14.0 11.7 87 1.1 SW 2 6 1 3 1017.7 1017.1 0.0
09/06:00am 14.4 13.7 12.1 86 1.2 SW 7 9 4 5 1017.4 1016.8 0.0
09/05:30am 15.1 14.5 12.2 83 1.6 SW 7 9 4 5 1017.2 1016.6 0.0
09/05:00am 15.4 14.5 12.5 83 1.6 SW 9 11 5 6 1017.0 1016.4 0.0
09/04:30am 15.4 14.4 12.3 82 1.7 SW 9 11 5 6 1016.9 1016.3 0.0
09/04:00am 15.7 14.8 12.6 82 1.7 SW 9 9 5 5 1016.9 1016.3 0.0
09/03:30am 16.1 15.2 12.5 79 2.0 WSW 9 11 5 6 1017.0 1016.4 0.0
09/03:00am 16.4 15.2 12.8 79 2.0 WSW 11 13 6 7 1016.8 1016.2 0.0
09/02:30am 16.9 15.8 13.0 78 2.2 WSW 11 13 6 7 1016.8 1016.2 0.0
09/02:00am 17.1 16.4 13.2 78 2.2 WSW 9 11 5 6 1016.9 1016.3 0.0
09/01:30am 17.4 15.9 13.1 76 2.4 SW 13 15 7 8 1016.9 1016.3 0.0
09/01:00am 18.4 17.0 13.3 72 2.9 WSW 13 15 7 8 1017.1 1016.5 0.0
09/12:30am 19.2 17.4 13.2 68 3.4 WSW 15 17 8 9 1017.2 1016.6 0.0
09/12:00am 19.8 18.3 13.0 65 3.9 WSW 13 17 7 9 1017.3 1016.7 0.0
 
Date/Time
EDT
Temp
°C
App
Temp
°C
Dew
Point
Rel
Hum
%
Delta-T
°C
Wind Press
QNH
hPa
Press
MSL
hPa
Rain
since 9 am
mm
Dir
 
Spd
km/h
Gust
km/h
Spd
kts
Gust
kts
08/11:30pm 20.3 19.0 12.5 61 4.4 WSW 11 15 6 8 1017.5 1016.9 0.0
08/11:00pm 21.0 19.8 11.6 55 5.2 SW 9 11 5 6 1017.6 1017.0 0.0
08/10:30pm 22.0 19.8 10.8 49 6.2 SW 13 15 7 8 1017.5 1016.9 0.0
08/10:00pm 23.6 20.7 9.6 41 7.6 SW 15 17 8 9 1017.3 1016.7 0.0
08/09:30pm 25.9 23.0 10.9 39 8.5 SW 17 22 9 12 1017.0 1016.4 0.0
08/09:00pm 27.4 24.4 11.8 38 9.0 SSW 19 26 10 14 1016.6 1016.0 0.0
08/08:30pm 28.6 25.7 9.8 31 10.6 SSW 15 20 8 11 1016.4 1015.8 0.0
08/08:00pm 30.5 26.7 9.9 28 11.7 SSW 20 26 11 14 1016.2 1015.6 0.0

Other Formats:

Comma delimited format used in spreadsheet applications
http://www.bom.gov.au/fwo/IDV60801/IDV60801.94862.axf

JavaScript Object Notation format (JSON) in row-major order
http://www.bom.gov.au/fwo/IDV60801/IDV60801.94862.json